createdAt,value
2022-08-26T00:16:29.011Z,110
2022-08-26T00:36:29.628Z,110
2022-08-26T00:56:28.933Z,109
2022-08-26T01:16:28.513Z,111
2022-08-26T01:36:28.441Z,117
2022-08-26T01:56:33.217Z,118
2022-08-26T02:16:29.001Z,113
2022-08-26T02:36:28.899Z,117
2022-08-26T02:56:28.899Z,114
2022-08-26T03:16:32.238Z,119
2022-08-26T03:36:28.881Z,119
2022-08-26T03:56:28.877Z,121
2022-08-26T04:16:28.931Z,120
2022-08-26T04:36:28.863Z,124
2022-08-26T04:56:28.390Z,125
2022-08-26T05:16:28.889Z,127
2022-08-26T05:36:28.340Z,129
2022-08-26T05:56:28.320Z,130
2022-08-26T06:16:28.827Z,129
2022-08-26T06:36:28.805Z,128
2022-08-26T06:56:28.842Z,125
2022-08-26T07:16:28.794Z,124
2022-08-26T07:36:28.790Z,123
2022-08-26T07:56:28.796Z,121
2022-08-26T08:36:32.206Z,120
2022-08-26T08:56:28.769Z,120
2022-08-26T09:16:28.810Z,119
2022-08-26T09:36:28.733Z,119
2022-08-26T09:56:28.542Z,120
2022-08-26T10:16:28.477Z,118
2022-08-26T10:36:28.701Z,115
2022-08-26T11:16:28.709Z,117
2022-08-26T11:36:28.704Z,119
2022-08-26T11:56:28.849Z,116
2022-08-26T12:16:28.718Z,118
2022-08-26T12:36:28.706Z,118
2022-08-26T12:56:29.757Z,116
2022-08-26T13:16:28.737Z,118
2022-08-26T13:36:28.628Z,116
2022-08-26T13:56:28.432Z,118
2022-08-26T14:36:28.605Z,116
2022-08-26T14:56:28.084Z,118
2022-08-26T15:16:28.471Z,117
2022-08-26T15:36:28.569Z,118
2022-08-26T15:56:28.547Z,115
2022-08-26T16:16:28.604Z,117
2022-08-26T16:36:28.331Z,118
2022-08-26T16:56:30.600Z,117
2022-08-26T17:16:28.549Z,120
2022-08-26T17:36:28.554Z,119
2022-08-26T17:56:28.573Z,120
2022-08-26T18:16:28.513Z,120
2022-08-26T18:36:28.280Z,120
2022-08-26T18:56:28.461Z,118
2022-08-26T19:16:28.508Z,120
2022-08-26T19:36:28.436Z,121
2022-08-26T19:56:28.455Z,120
2022-08-26T20:16:28.479Z,120
2022-08-26T20:36:28.458Z,119
2022-08-26T20:56:27.938Z,120
2022-08-26T21:16:28.460Z,119
2022-08-26T21:36:28.427Z,119
2022-08-26T21:56:28.391Z,117
2022-08-26T22:16:28.186Z,119
2022-08-26T22:36:28.367Z,121
2022-08-26T22:56:28.364Z,122
2022-08-26T23:16:28.415Z,124
2022-08-26T23:36:28.346Z,123
2022-08-26T23:56:27.846Z,123
